Terminal Aerodrome Forecast
Issued by NWS Mt. Holly, NJ

Home | Current Version | Previous Version | Text Only | Print | Product List | Glossary On
Versions: 1 2 3 4 5 6 7 8 9 10 11 12 13 14 15 16 17 18 19 20 21 22 23 24 25 26 27 28 29 30
000
FTUS41 KPHI 281506 AAA
TAFPHL
TAF AMD
KPHL 281506Z 2815/2918 12008KT P6SM SCT050 BKN200
     FM281700 15009KT P6SM BKN050
     FM282300 11008KT P6SM SCT015 BKN050
      TEMPO 2900/2903 BKN015 OVC050
     FM290300 09008KT P6SM -SHRA OVC008
     FM290700 10006KT 3SM -SHRA BR OVC004
     FM291400 VRB03KT P6SM OVC012
     FM291600 25006KT P6SM BKN025=

USA.gov is the U.S. government's official web portal to all federal, state and local government web resources and services.